createdAt,value
2022-12-08T00:01:20.788Z,100033.81
2022-12-08T00:03:49.256Z,100031.03
2022-12-08T00:06:44.039Z,100037.13
2022-12-08T00:09:24.312Z,100034.44
2022-12-08T00:11:54.250Z,100028.28
2022-12-08T00:14:25.723Z,100016.78
2022-12-08T00:16:53.694Z,100015.06
2022-12-08T00:19:21.695Z,100014.03
2022-12-08T00:21:51.070Z,100012.50
2022-12-08T00:24:19.880Z,100016.09
2022-12-08T00:26:48.213Z,100004.72
2022-12-08T00:29:17.736Z,100001.47
2022-12-08T00:31:45.749Z,99999.59
2022-12-08T00:34:13.983Z,100003.19
2022-12-08T00:36:41.820Z,100000.38
2022-12-08T00:39:11.779Z,99995.94
2022-12-08T00:41:57.205Z,100000.38
2022-12-08T00:44:25.046Z,100001.22
2022-12-08T00:46:52.776Z,100003.78
2022-12-08T00:49:20.869Z,100009.88
2022-12-08T00:51:48.623Z,100004.53
2022-12-08T00:54:18.115Z,99990.47
2022-12-08T00:56:46.247Z,100002.84
2022-12-08T00:59:13.920Z,100004.44
2022-12-08T01:01:42.063Z,99999.13
2022-12-08T01:04:15.445Z,99995.53
2022-12-08T01:06:43.510Z,99994.50
2022-12-08T01:09:13.648Z,99991.03
2022-12-08T01:11:42.900Z,99984.84
2022-12-08T01:14:10.582Z,99978.72
2022-12-08T01:16:38.902Z,99976.19
2022-12-08T01:19:06.676Z,99959.72
2022-12-08T01:21:34.359Z,99963.38
2022-12-08T01:24:02.844Z,99966.78
2022-12-08T01:26:30.720Z,99954.72
2022-12-08T01:28:59.903Z,99966.16
2022-12-08T01:31:27.759Z,99961.16
2022-12-08T01:33:55.500Z,99962.84
2022-12-08T01:36:26.362Z,99956.91
2022-12-08T01:38:55.333Z,99957.78
2022-12-08T01:41:26.164Z,99957.09
2022-12-08T01:44:01.456Z,99955.50
2022-12-08T01:46:30.730Z,99960.00
2022-12-08T01:49:04.143Z,99966.94
2022-12-08T01:51:36.690Z,99956.47
2022-12-08T01:54:06.813Z,99966.16
2022-12-08T01:56:38.678Z,99971.28
2022-12-08T01:59:08.084Z,99966.78
2022-12-08T02:01:35.961Z,99961.41
2022-12-08T02:04:05.236Z,99953.44
2022-12-08T02:06:35.964Z,99949.88
2022-12-08T02:09:06.573Z,99947.13
2022-12-08T02:11:34.250Z,99946.22
2022-12-08T02:14:05.208Z,99946.97
2022-12-08T02:16:42.275Z,99949.53
2022-12-08T02:19:44.936Z,99953.78
2022-12-08T02:22:16.836Z,99951.06
2022-12-08T02:24:51.816Z,99952.50
2022-12-08T02:27:38.750Z,99940.94
2022-12-08T02:30:25.804Z,99941.88
2022-12-08T02:33:43.035Z,99946.13
2022-12-08T02:36:18.729Z,99945.09
2022-12-08T02:38:53.605Z,99945.19
2022-12-08T02:41:32.276Z,99942.56
2022-12-08T02:44:06.825Z,99944.06
2022-12-08T02:46:40.583Z,99938.72
2022-12-08T02:49:10.619Z,99937.03
2022-12-08T02:51:38.358Z,99933.47
2022-12-08T02:54:06.282Z,99933.38
2022-12-08T02:56:51.745Z,99929.91
2022-12-08T02:59:31.915Z,99930.66
2022-12-08T03:02:18.845Z,99924.38
2022-12-08T03:04:57.733Z,99923.63
2022-12-08T03:07:32.388Z,99916.63
2022-12-08T03:10:05.215Z,99916.63
2022-12-08T03:12:39.297Z,99906.88
2022-12-08T03:15:11.679Z,99905.09
2022-12-08T03:17:41.811Z,99905.00
2022-12-08T03:20:14.995Z,99911.13
2022-12-08T03:22:44.018Z,99911.00
2022-12-08T03:25:15.906Z,99907.47
2022-12-08T03:27:44.298Z,99901.25
2022-12-08T03:30:12.770Z,99898.63
2022-12-08T03:32:47.774Z,99902.00
2022-12-08T03:35:21.424Z,99894.03
2022-12-08T03:37:49.420Z,99888.75
2022-12-08T03:40:20.106Z,99899.28
2022-12-08T03:42:47.788Z,99886.88
2022-12-08T03:45:15.595Z,99887.84
2022-12-08T03:47:43.640Z,99888.59
2022-12-08T03:50:12.791Z,99879.09
2022-12-08T03:52:41.889Z,99877.38
2022-12-08T03:55:10.357Z,99867.78
2022-12-08T03:57:38.062Z,99866.03
2022-12-08T04:00:07.766Z,99869.50
2022-12-08T04:02:35.588Z,99862.50
2022-12-08T04:05:03.391Z,99860.00
2022-12-08T04:07:31.392Z,99853.97
2022-12-08T04:10:00.467Z,99840.91
2022-12-08T04:12:28.147Z,99846.16
2022-12-08T04:14:55.873Z,99839.19
2022-12-08T04:17:23.525Z,99837.50
2022-12-08T04:19:51.237Z,99839.31
2022-12-08T04:22:18.983Z,99835.16
2022-12-08T04:24:46.701Z,99840.50
2022-12-08T04:27:15.765Z,99832.78
2022-12-08T04:29:43.551Z,99833.81
2022-12-08T04:32:11.277Z,99839.22
2022-12-08T04:34:39.007Z,99839.22
2022-12-08T04:37:06.775Z,99840.19
2022-12-08T04:39:34.529Z,99833.31
2022-12-08T04:42:02.227Z,99830.69
2022-12-08T04:44:31.361Z,99836.03
2022-12-08T04:46:59.153Z,99835.09
2022-12-08T04:49:26.893Z,99831.63
2022-12-08T04:51:54.540Z,99832.56
2022-12-08T04:54:22.234Z,99830.78
2022-12-08T04:56:50.006Z,99832.47
2022-12-08T04:59:17.656Z,99829.75
2022-12-08T05:01:46.831Z,99827.09
2022-12-08T05:04:14.709Z,99830.59
2022-12-08T05:06:42.408Z,99828.81
2022-12-08T05:09:10.338Z,99837.56
2022-12-08T05:11:46.943Z,99836.72
2022-12-08T05:14:18.308Z,99827.78
2022-12-08T05:16:48.504Z,99828.72
2022-12-08T05:19:17.503Z,99830.41
2022-12-08T05:21:45.996Z,99826.84
2022-12-08T05:24:13.761Z,99831.25
2022-12-08T05:26:41.407Z,99830.50
2022-12-08T05:29:09.122Z,99819.97
2022-12-08T05:31:36.859Z,99812.06
2022-12-08T05:34:05.998Z,99814.03
2022-12-08T05:36:33.675Z,99816.66
2022-12-08T05:39:01.408Z,99816.94
2022-12-08T05:41:29.112Z,99811.19
2022-12-08T05:43:56.774Z,99817.38
2022-12-08T05:46:29.231Z,99819.25
2022-12-08T05:48:57.112Z,99815.88
2022-12-08T05:51:26.166Z,99814.94
2022-12-08T05:53:54.659Z,99822.72
2022-12-08T05:56:23.724Z,99815.59
2022-12-08T05:58:51.682Z,99817.47
2022-12-08T06:01:24.377Z,99819.34
2022-12-08T06:03:52.258Z,99816.81
2022-12-08T06:06:20.460Z,99816.81
2022-12-08T06:08:49.829Z,99821.22
2022-12-08T06:11:22.592Z,99822.84
2022-12-08T06:13:50.773Z,99821.88
2022-12-08T06:16:21.725Z,99816.81
2022-12-08T06:18:49.783Z,99822.09
2022-12-08T06:21:18.440Z,99813.25
2022-12-08T06:23:50.780Z,99820.28
2022-12-08T06:26:19.006Z,99812.41
2022-12-08T06:28:46.707Z,99809.69
2022-12-08T06:31:17.478Z,99808.16
2022-12-08T06:33:46.270Z,99813.50
2022-12-08T06:36:15.621Z,99815.38
2022-12-08T06:38:44.108Z,99813.69
2022-12-08T06:41:13.861Z,99812.91
2022-12-08T06:43:42.015Z,99804.19
2022-12-08T06:46:12.045Z,99804.09
2022-12-08T06:48:39.983Z,99798.84
2022-12-08T06:51:09.544Z,99801.63
2022-12-08T06:53:37.752Z,99799.00
2022-12-08T06:56:06.039Z,99801.75
2022-12-08T06:58:35.507Z,99801.75
2022-12-08T07:01:08.505Z,99802.75
2022-12-08T07:03:36.672Z,99796.56
2022-12-08T07:06:05.108Z,99799.19
2022-12-08T07:08:33.232Z,99808.97
2022-12-08T07:11:01.285Z,99804.63
2022-12-08T07:13:29.002Z,99812.50
2022-12-08T07:15:58.147Z,99812.69
2022-12-08T07:18:25.896Z,99814.56
2022-12-08T07:20:53.598Z,99818.13
2022-12-08T07:23:21.348Z,99825.09
2022-12-08T07:25:49.051Z,99823.22
2022-12-08T07:28:16.721Z,99822.19
2022-12-08T07:30:44.567Z,99820.41
2022-12-08T07:33:13.645Z,99821.16
2022-12-08T07:35:46.366Z,99815.81
2022-12-08T07:38:16.854Z,99814.03
2022-12-08T07:40:44.620Z,99819.22
2022-12-08T07:43:12.334Z,99816.50
2022-12-08T07:45:41.652Z,99812.06
2022-12-08T07:48:09.583Z,99813.69
2022-12-08T07:50:39.178Z,99808.41
2022-12-08T07:53:07.295Z,99809.38
2022-12-08T07:55:35.299Z,99803.06
2022-12-08T07:58:03.008Z,99807.50
2022-12-08T08:00:31.610Z,99805.78
2022-12-08T08:02:59.516Z,99816.16
2022-12-08T08:05:27.417Z,99814.44
2022-12-08T08:07:56.557Z,99811.72
2022-12-08T08:10:24.310Z,99809.84
2022-12-08T08:12:52.143Z,99809.56
2022-12-08T08:15:21.315Z,99805.94
2022-12-08T08:17:51.391Z,99799.66
2022-12-08T08:20:19.492Z,99813.38
2022-12-08T08:22:47.516Z,99814.91
2022-12-08T08:25:17.439Z,99806.91
2022-12-08T08:27:45.694Z,99808.53
2022-12-08T08:30:20.139Z,99807.50
2022-12-08T08:32:48.315Z,99815.31
2022-12-08T08:35:15.995Z,99814.19
2022-12-08T08:37:48.502Z,99810.59
2022-12-08T08:40:18.247Z,99817.38
2022-12-08T08:42:46.052Z,99815.50
2022-12-08T08:45:13.828Z,99816.25
2022-12-08T08:47:41.653Z,99813.53
2022-12-08T08:50:10.743Z,99806.31
2022-12-08T08:52:38.444Z,99812.91
2022-12-08T08:55:06.940Z,99813.84
2022-12-08T08:57:36.045Z,99808.41
2022-12-08T09:00:04.985Z,99804.81
2022-12-08T09:02:32.894Z,99809.16
2022-12-08T09:05:00.723Z,99807.16
2022-12-08T09:07:28.593Z,99810.38
2022-12-08T09:10:01.400Z,99808.50
2022-12-08T09:12:29.788Z,99806.53
2022-12-08T09:14:59.079Z,99809.91
2022-12-08T09:17:26.812Z,99804.44
2022-12-08T09:19:54.546Z,99804.28
2022-12-08T09:22:23.683Z,99801.34
2022-12-08T09:24:51.387Z,99804.84
2022-12-08T09:27:19.281Z,99801.94
2022-12-08T09:29:46.955Z,99800.78
2022-12-08T09:32:16.054Z,99805.75
2022-12-08T09:34:47.684Z,99803.13
2022-12-08T09:37:19.592Z,99794.19
2022-12-08T09:39:48.038Z,99792.03
2022-12-08T09:42:26.681Z,99792.56
2022-12-08T09:45:03.891Z,99786.06
2022-12-08T09:47:36.994Z,99782.22
2022-12-08T09:50:09.688Z,99783.06
2022-12-08T09:52:42.707Z,99780.78
2022-12-08T09:55:18.277Z,99772.38
2022-12-08T09:57:51.635Z,99774.44
2022-12-08T10:00:23.443Z,99771.31
2022-12-08T10:02:52.648Z,99775.03
2022-12-08T10:05:21.738Z,99767.97
2022-12-08T10:07:59.904Z,99764.81
2022-12-08T10:10:36.721Z,99755.25
2022-12-08T10:13:16.590Z,99757.72
2022-12-08T10:15:51.603Z,99750.88
2022-12-08T10:18:24.652Z,99750.47
2022-12-08T10:20:59.003Z,99757.44
2022-12-08T10:23:32.948Z,99752.69
2022-12-08T10:26:03.419Z,99745.50
2022-12-08T10:28:33.165Z,99752.34
2022-12-08T10:31:01.095Z,99745.22
2022-12-08T10:33:33.492Z,99744.66
2022-12-08T10:36:02.916Z,99740.22
2022-12-08T10:38:31.986Z,99736.41
2022-12-08T10:41:05.652Z,99737.47
2022-12-08T10:43:34.430Z,99737.38
2022-12-08T10:46:13.729Z,99731.78
2022-12-08T10:48:51.328Z,99730.94
2022-12-08T10:51:30.479Z,99722.06
2022-12-08T10:53:58.269Z,99715.59
2022-12-08T10:56:29.022Z,99718.78
2022-12-08T10:59:12.956Z,99713.28
2022-12-08T11:01:42.556Z,99718.88
2022-12-08T11:04:18.398Z,99710.53
2022-12-08T11:06:47.504Z,99715.09
2022-12-08T11:09:37.894Z,99709.69
2022-12-08T11:12:13.753Z,99701.69
2022-12-08T11:14:50.377Z,99700.81
2022-12-08T11:17:25.473Z,99691.22
2022-12-08T11:20:00.361Z,99693.22
2022-12-08T11:22:33.475Z,99693.00
2022-12-08T11:25:04.280Z,99683.38
2022-12-08T11:27:34.453Z,99688.56
2022-12-08T11:30:03.460Z,99681.47
2022-12-08T11:32:31.935Z,99677.16
2022-12-08T11:35:04.836Z,99680.00
2022-12-08T11:37:35.175Z,99683.63
2022-12-08T11:40:09.040Z,99671.59
2022-12-08T11:42:47.029Z,99673.16
2022-12-08T11:45:22.919Z,99666.16
2022-12-08T11:47:58.161Z,99667.25
2022-12-08T11:50:32.741Z,99659.84
2022-12-08T11:53:02.786Z,99659.72
2022-12-08T11:55:38.780Z,99653.09
2022-12-08T11:58:15.807Z,99652.22
2022-12-08T12:00:43.776Z,99652.88
2022-12-08T12:03:22.506Z,99642.94
2022-12-08T12:06:18.637Z,99647.78
2022-12-08T12:09:07.893Z,99644.31
2022-12-08T12:12:09.495Z,99646.72
2022-12-08T12:14:57.796Z,99638.06
2022-12-08T12:17:35.544Z,99644.22
2022-12-08T12:20:12.084Z,99632.13
2022-12-08T12:22:43.015Z,99635.59
2022-12-08T12:25:19.057Z,99626.50
2022-12-08T12:27:49.120Z,99622.06
2022-12-08T12:30:22.820Z,99624.28
2022-12-08T12:32:56.520Z,99618.66
2022-12-08T12:35:34.525Z,99627.31
2022-12-08T12:38:29.365Z,99631.16
2022-12-08T12:41:02.262Z,99633.69
2022-12-08T12:43:31.452Z,99623.66
2022-12-08T12:46:32.905Z,99629.25
2022-12-08T12:49:33.191Z,99631.41
2022-12-08T12:52:00.903Z,99622.84
2022-12-08T12:54:30.395Z,99627.81
2022-12-08T12:57:17.411Z,99621.28
2022-12-08T12:59:51.598Z,99613.59
2022-12-08T13:02:25.801Z,99615.50
2022-12-08T13:04:57.952Z,99615.50
2022-12-08T13:07:27.955Z,99615.81
2022-12-08T13:10:01.290Z,99613.19
2022-12-08T13:12:30.690Z,99616.44
2022-12-08T13:15:05.253Z,99610.56
2022-12-08T13:17:34.722Z,99608.13
2022-12-08T13:20:06.328Z,99611.91
2022-12-08T13:23:02.981Z,99601.34
2022-12-08T13:26:13.666Z,99604.00
2022-12-08T13:29:15.053Z,99597.97
2022-12-08T13:31:50.115Z,99595.34
2022-12-08T13:34:22.894Z,99597.16
2022-12-08T13:37:03.249Z,99591.00
2022-12-08T13:39:36.443Z,99598.91
2022-12-08T13:42:14.679Z,99596.41
2022-12-08T13:48:05.959Z,99590.06
2022-12-08T13:59:11.048Z,99592.94
2022-12-08T14:01:45.761Z,99591.66
2022-12-08T14:07:05.984Z,99593.69
2022-12-08T14:09:37.505Z,99588.59
2022-12-08T14:12:08.392Z,99591.44
2022-12-08T14:17:29.004Z,99598.13
2022-12-08T14:19:59.158Z,99590.31
2022-12-08T14:22:34.341Z,99588.63
2022-12-08T14:25:02.729Z,99588.81
2022-12-08T14:27:37.175Z,99588.63
2022-12-08T14:30:08.569Z,99589.78
2022-12-08T14:32:40.054Z,99595.25
2022-12-08T14:35:20.700Z,99585.03
2022-12-08T14:37:51.098Z,99588.50
2022-12-08T14:40:24.353Z,99589.44
2022-12-08T14:42:55.311Z,99594.09
2022-12-08T14:45:24.460Z,99606.66
2022-12-08T14:47:52.328Z,99603.47
2022-12-08T14:50:41.980Z,99594.06
2022-12-08T14:53:16.049Z,99598.59
2022-12-08T14:55:45.751Z,99599.66
2022-12-08T14:58:19.700Z,99598.09
2022-12-08T15:00:52.230Z,99598.19
2022-12-08T15:03:22.962Z,99600.50
2022-12-08T15:05:52.918Z,99601.50
2022-12-08T15:08:20.787Z,99601.75
2022-12-08T15:11:08.642Z,99597.63
2022-12-08T15:13:36.411Z,99605.06
2022-12-08T15:16:27.571Z,99606.22
2022-12-08T15:19:17.365Z,99602.84
2022-12-08T15:21:46.265Z,99596.72
2022-12-08T15:24:15.096Z,99603.78
2022-12-08T15:26:45.745Z,99598.72
2022-12-08T15:29:19.768Z,99600.59
2022-12-08T15:31:49.052Z,99599.97
2022-12-08T15:34:16.901Z,99603.38
2022-12-08T15:36:46.592Z,99603.47
2022-12-08T15:39:25.787Z,99591.44
2022-12-08T15:41:53.505Z,99584.44
2022-12-08T15:44:21.306Z,99591.72
2022-12-08T15:46:50.947Z,99601.31
2022-12-08T15:49:21.067Z,99591.72
2022-12-08T15:51:49.442Z,99600.66
2022-12-08T15:54:17.448Z,99599.91
2022-12-08T15:57:17.549Z,99599.81
2022-12-08T15:59:35.591Z,99596.44
2022-12-08T16:02:04.859Z,99593.91
2022-12-08T16:05:33.311Z,99597.38
2022-12-08T16:07:24.709Z,99597.50
2022-12-08T16:09:53.130Z,99601.28
2022-12-08T16:13:40.443Z,99593.38
2022-12-08T16:18:24.589Z,99592.72
2022-12-08T16:21:17.049Z,99589.22
2022-12-08T16:23:43.662Z,99585.00
2022-12-08T16:26:35.664Z,99586.72
2022-12-08T16:29:02.185Z,99580.88
2022-12-08T16:31:29.918Z,99584.25
2022-12-08T16:33:59.043Z,99585.22
2022-12-08T16:36:26.811Z,99585.09
2022-12-08T16:38:54.599Z,99585.84
2022-12-08T16:41:39.986Z,99583.94
2022-12-08T16:44:07.753Z,99574.28
2022-12-08T16:46:36.386Z,99580.47
2022-12-08T16:49:05.805Z,99584.91
2022-12-08T16:51:33.617Z,99582.28
2022-12-08T16:54:01.377Z,99583.19
2022-12-08T16:56:32.952Z,99588.69
2022-12-08T16:59:01.867Z,99581.63
2022-12-08T17:01:29.968Z,99580.88
2022-12-08T17:06:47.048Z,99573.94
2022-12-08T17:09:14.930Z,99573.19
2022-12-08T17:11:43.828Z,99570.56
2022-12-08T17:14:12.491Z,99572.31
2022-12-08T17:16:40.996Z,99565.16
2022-12-08T17:19:08.829Z,99569.50
2022-12-08T17:21:36.907Z,99577.50
2022-12-08T17:24:06.359Z,99572.22
2022-12-08T17:26:34.104Z,99565.28
2022-12-08T17:29:03.413Z,99568.84
2022-12-08T17:31:32.239Z,99564.44
2022-12-08T17:34:00.670Z,99571.50
2022-12-08T17:36:28.486Z,99570.66
2022-12-08T17:38:56.952Z,99567.28
2022-12-08T17:41:26.046Z,99571.88
2022-12-08T17:43:53.812Z,99564.81
2022-12-08T17:46:22.771Z,99561.44
2022-12-08T17:48:50.858Z,99559.78
2022-12-08T17:51:18.752Z,99556.38
2022-12-08T17:53:46.512Z,99550.38
2022-12-08T17:56:16.631Z,99557.31
2022-12-08T17:58:49.866Z,99557.22
2022-12-08T18:01:21.967Z,99553.75
2022-12-08T18:03:49.855Z,99556.38
2022-12-08T18:06:18.115Z,99560.91
2022-12-08T18:08:45.861Z,99560.03
2022-12-08T18:11:17.880Z,99565.44
2022-12-08T18:13:47.280Z,99567.31
2022-12-08T18:16:15.939Z,99566.44
2022-12-08T18:18:43.947Z,99563.94
2022-12-08T18:21:13.033Z,99564.94
2022-12-08T18:23:42.664Z,99567.69
2022-12-08T18:26:13.624Z,99559.78
2022-12-08T18:28:41.954Z,99566.00
2022-12-08T18:31:12.672Z,99566.31
2022-12-08T18:33:41.964Z,99561.78
2022-12-08T18:36:11.832Z,99562.63
2022-12-08T18:38:40.171Z,99562.63
2022-12-08T18:41:10.376Z,99576.63
2022-12-08T18:43:38.591Z,99568.72
2022-12-08T18:46:09.480Z,99566.94
2022-12-08T18:48:40.470Z,99567.16
2022-12-08T18:51:11.147Z,99563.47
2022-12-08T18:53:39.624Z,99560.09
2022-12-08T18:56:08.630Z,99560.91
2022-12-08T18:58:36.874Z,99557.53
2022-12-08T19:01:04.706Z,99568.06
2022-12-08T19:03:32.534Z,99567.44
2022-12-08T19:06:05.893Z,99568.56
2022-12-08T19:08:34.066Z,99571.00
2022-12-08T19:11:01.880Z,99571.00
2022-12-08T19:13:30.444Z,99568.19
2022-12-08T19:15:58.327Z,99564.69
2022-12-08T19:18:26.090Z,99569.19
2022-12-08T19:20:56.717Z,99563.84
2022-12-08T19:23:25.936Z,99560.28
2022-12-08T19:25:53.998Z,99558.59
2022-12-08T19:28:21.854Z,99561.22
2022-12-08T19:30:49.872Z,99559.41
2022-12-08T19:33:17.759Z,99561.31
2022-12-08T19:35:52.215Z,99568.47
2022-12-08T19:38:20.533Z,99559.63
2022-12-08T19:41:07.457Z,99557.00
2022-12-08T19:43:49.093Z,99550.91
2022-12-08T19:46:17.174Z,99557.66
2022-12-08T19:48:45.237Z,99547.22
2022-12-08T19:51:13.289Z,99544.50
2022-12-08T19:53:47.356Z,99547.22
2022-12-08T19:56:17.038Z,99549.28
2022-12-08T19:58:44.817Z,99540.66
2022-12-08T20:01:12.632Z,99547.03
2022-12-08T20:03:40.563Z,99543.88
2022-12-08T20:06:14.097Z,99545.00
2022-12-08T20:08:46.127Z,99541.63
2022-12-08T20:11:18.077Z,99542.47
2022-12-08T20:13:47.725Z,99537.00
2022-12-08T20:16:16.596Z,99542.38
2022-12-08T20:18:45.977Z,99543.22
2022-12-08T20:21:13.821Z,99542.47
2022-12-08T20:23:41.626Z,99539.00
2022-12-08T20:26:12.418Z,99545.94
2022-12-08T20:28:41.714Z,99544.16
2022-12-08T20:31:09.654Z,99543.22
2022-12-08T20:33:37.448Z,99543.31
2022-12-08T20:36:07.519Z,99544.06
2022-12-08T20:38:35.403Z,99544.06
2022-12-08T20:41:03.200Z,99541.63
2022-12-08T20:43:30.962Z,99540.97
2022-12-08T20:46:00.398Z,99543.59
2022-12-08T20:48:28.181Z,99548.03
2022-12-08T20:50:56.161Z,99539.34
2022-12-08T20:53:24.017Z,99546.41
2022-12-08T20:55:51.859Z,99540.22
2022-12-08T20:58:19.927Z,99550.84
2022-12-08T21:00:47.835Z,99545.75
2022-12-08T21:03:17.579Z,99543.25
2022-12-08T21:05:49.665Z,99550.38
2022-12-08T21:08:17.786Z,99546.34
2022-12-08T21:10:45.912Z,99547.19
2022-12-08T21:13:13.725Z,99541.91
2022-12-08T21:15:46.488Z,99544.47
2022-12-08T21:18:14.498Z,99541.63
2022-12-08T21:20:43.888Z,99541.63
2022-12-08T21:23:12.348Z,99539.00
2022-12-08T21:25:41.576Z,99538.06
2022-12-08T21:28:09.669Z,99539.00
2022-12-08T21:30:38.842Z,99535.44
2022-12-08T21:33:06.817Z,99541.06
2022-12-08T21:35:34.891Z,99543.72
2022-12-08T21:38:05.540Z,99547.09
2022-12-08T21:40:34.792Z,99541.16
2022-12-08T21:43:03.785Z,99543.03
2022-12-08T21:45:32.621Z,99547.25
2022-12-08T21:48:04.379Z,99552.34
2022-12-08T21:50:35.192Z,99544.53
2022-12-08T21:53:04.583Z,99549.72
2022-12-08T21:55:32.565Z,99540.88
2022-12-08T21:58:01.021Z,99544.25
2022-12-08T22:00:29.227Z,99545.13
2022-12-08T22:02:57.648Z,99548.59
2022-12-08T22:05:25.490Z,99541.63
2022-12-08T22:07:53.307Z,99540.69
2022-12-08T22:10:23.421Z,99535.34
2022-12-08T22:12:51.390Z,99533.34
2022-12-08T22:15:19.535Z,99535.97
2022-12-08T22:17:47.576Z,99539.56
2022-12-08T22:20:16.863Z,99543.88
2022-12-08T22:22:45.601Z,99542.19
2022-12-08T22:25:13.750Z,99535.13
2022-12-08T22:27:43.129Z,99535.22
2022-12-08T22:30:12.361Z,99533.47
2022-12-08T22:32:40.406Z,99536.28
2022-12-08T22:35:08.830Z,99534.84
2022-12-08T22:37:36.531Z,99537.50
2022-12-08T22:40:05.372Z,99531.41
2022-12-08T22:42:33.648Z,99524.53
2022-12-08T22:45:03.982Z,99528.97
2022-12-08T22:47:32.089Z,99523.97
2022-12-08T22:49:59.990Z,99530.19
2022-12-08T22:52:27.850Z,99525.84
2022-12-08T22:54:55.778Z,99532.06
2022-12-08T22:57:23.781Z,99523.50
2022-12-08T22:59:51.733Z,99528.88
2022-12-08T23:02:20.993Z,99514.78
2022-12-08T23:04:49.354Z,99511.28
2022-12-08T23:07:17.352Z,99510.53
2022-12-08T23:09:45.366Z,99508.03
2022-12-08T23:12:13.638Z,99509.91
2022-12-08T23:14:41.630Z,99510.00
2022-12-08T23:17:09.506Z,99510.25
2022-12-08T23:19:39.685Z,99509.63
2022-12-08T23:22:07.555Z,99508.13
2022-12-08T23:24:35.463Z,99501.16
2022-12-08T23:27:03.271Z,99506.50
2022-12-08T23:29:31.014Z,99496.28
2022-12-08T23:31:58.967Z,99491.94
2022-12-08T23:34:27.409Z,99492.91
2022-12-08T23:36:56.528Z,99489.53
2022-12-08T23:39:24.777Z,99492.16
2022-12-08T23:41:52.803Z,99488.78
2022-12-08T23:44:20.692Z,99489.59
2022-12-08T23:46:48.611Z,99481.06
2022-12-08T23:49:17.025Z,99486.44
2022-12-08T23:51:44.710Z,99477.03
2022-12-08T23:54:14.224Z,99469.50
2022-12-08T23:56:42.264Z,99471.56
2022-12-08T23:59:10.560Z,99473.63
